sensor_id;sensor_type;location;lat;lon;timestamp;temperature;humidity
28530;DHT22;15737;49.760;6.632;2023-09-07T00:01:29;15.70;99.90
28530;DHT22;15737;49.760;6.632;2023-09-07T00:03:55;15.70;99.90
28530;DHT22;15737;49.760;6.632;2023-09-07T00:06:21;15.70;99.90
28530;DHT22;15737;49.760;6.632;2023-09-07T00:08:46;15.80;99.90
28530;DHT22;15737;49.760;6.632;2023-09-07T00:11:11;15.70;99.90
28530;DHT22;15737;49.760;6.632;2023-09-07T00:13:37;15.70;99.90
28530;DHT22;15737;49.760;6.632;2023-09-07T00:16:04;15.60;99.90
28530;DHT22;15737;49.760;6.632;2023-09-07T00:18:30;15.60;99.90
28530;DHT22;15737;49.760;6.632;2023-09-07T00:20:56;15.60;99.90
28530;DHT22;15737;49.760;6.632;2023-09-07T00:23:21;15.50;99.90
28530;DHT22;15737;49.760;6.632;2023-09-07T00:25:47;15.50;99.90
28530;DHT22;15737;49.760;6.632;2023-09-07T00:28:13;15.40;99.90
28530;DHT22;15737;49.760;6.632;2023-09-07T00:30:38;15.30;99.90
28530;DHT22;15737;49.760;6.632;2023-09-07T00:33:04;15.10;99.90
28530;DHT22;15737;49.760;6.632;2023-09-07T00:35:30;15.10;99.90
28530;DHT22;15737;49.760;6.632;2023-09-07T00:37:56;15.20;99.90
28530;DHT22;15737;49.760;6.632;2023-09-07T00:40:22;15.20;99.90
28530;DHT22;15737;49.760;6.632;2023-09-07T00:42:48;15.20;99.90
28530;DHT22;15737;49.760;6.632;2023-09-07T00:45:13;15.10;99.90
28530;DHT22;15737;49.760;6.632;2023-09-07T00:47:39;15.00;99.90
28530;DHT22;15737;49.760;6.632;2023-09-07T00:50:05;14.90;99.90
28530;DHT22;15737;49.760;6.632;2023-09-07T00:52:32;14.90;99.90
28530;DHT22;15737;49.760;6.632;2023-09-07T00:54:58;15.00;99.90
28530;DHT22;15737;49.760;6.632;2023-09-07T00:57:24;15.00;99.90
28530;DHT22;15737;49.760;6.632;2023-09-07T00:59:50;14.90;99.90
28530;DHT22;15737;49.760;6.632;2023-09-07T01:02:16;14.90;99.90
28530;DHT22;15737;49.760;6.632;2023-09-07T01:04:41;14.80;99.90
28530;DHT22;15737;49.760;6.632;2023-09-07T01:07:18;14.80;99.90
28530;DHT22;15737;49.760;6.632;2023-09-07T01:09:47;14.80;99.90
28530;DHT22;15737;49.760;6.632;2023-09-07T01:12:15;14.90;99.90
28530;DHT22;15737;49.760;6.632;2023-09-07T01:14:40;14.90;99.90
28530;DHT22;15737;49.760;6.632;2023-09-07T01:17:07;14.80;99.90
28530;DHT22;15737;49.760;6.632;2023-09-07T01:19:33;14.70;99.90
28530;DHT22;15737;49.760;6.632;2023-09-07T01:21:59;14.50;99.90
28530;DHT22;15737;49.760;6.632;2023-09-07T01:24:26;14.30;99.90
28530;DHT22;15737;49.760;6.632;2023-09-07T01:26:54;14.30;99.90
28530;DHT22;15737;49.760;6.632;2023-09-07T01:29:19;14.30;99.90
28530;DHT22;15737;49.760;6.632;2023-09-07T01:31:45;14.30;99.90
28530;DHT22;15737;49.760;6.632;2023-09-07T01:34:10;14.40;99.90
28530;DHT22;15737;49.760;6.632;2023-09-07T01:36:37;14.40;99.90
28530;DHT22;15737;49.760;6.632;2023-09-07T01:39:06;14.20;99.90
28530;DHT22;15737;49.760;6.632;2023-09-07T01:41:32;14.10;99.90
28530;DHT22;15737;49.760;6.632;2023-09-07T01:43:58;14.10;99.90
28530;DHT22;15737;49.760;6.632;2023-09-07T01:46:24;14.10;99.90
28530;DHT22;15737;49.760;6.632;2023-09-07T01:48:50;14.10;99.90
28530;DHT22;15737;49.760;6.632;2023-09-07T01:51:15;14.00;99.90
28530;DHT22;15737;49.760;6.632;2023-09-07T01:53:41;14.00;99.90
28530;DHT22;15737;49.760;6.632;2023-09-07T01:56:06;14.10;99.90
28530;DHT22;15737;49.760;6.632;2023-09-07T01:58:33;14.10;99.90
28530;DHT22;15737;49.760;6.632;2023-09-07T02:00:59;14.10;99.90
28530;DHT22;15737;49.760;6.632;2023-09-07T02:03:25;14.10;99.90
28530;DHT22;15737;49.760;6.632;2023-09-07T02:05:52;14.10;99.90
28530;DHT22;15737;49.760;6.632;2023-09-07T02:08:18;14.10;99.90
28530;DHT22;15737;49.760;6.632;2023-09-07T02:10:44;14.10;99.90
28530;DHT22;15737;49.760;6.632;2023-09-07T02:13:09;14.10;99.90
28530;DHT22;15737;49.760;6.632;2023-09-07T02:15:40;14.10;99.90
28530;DHT22;15737;49.760;6.632;2023-09-07T02:18:06;14.10;99.90
28530;DHT22;15737;49.760;6.632;2023-09-07T02:20:32;14.10;99.90
28530;DHT22;15737;49.760;6.632;2023-09-07T02:22:58;14.00;99.90
28530;DHT22;15737;49.760;6.632;2023-09-07T02:25:24;13.90;99.90
28530;DHT22;15737;49.760;6.632;2023-09-07T02:27:49;13.90;99.90
28530;DHT22;15737;49.760;6.632;2023-09-07T02:30:15;13.80;99.90
28530;DHT22;15737;49.760;6.632;2023-09-07T02:32:43;13.80;99.90
28530;DHT22;15737;49.760;6.632;2023-09-07T02:35:09;13.80;99.90
28530;DHT22;15737;49.760;6.632;2023-09-07T02:37:36;13.70;99.90
28530;DHT22;15737;49.760;6.632;2023-09-07T02:40:02;13.60;99.90
28530;DHT22;15737;49.760;6.632;2023-09-07T02:42:32;13.60;99.90
28530;DHT22;15737;49.760;6.632;2023-09-07T02:44:57;13.70;99.90
28530;DHT22;15737;49.760;6.632;2023-09-07T02:47:23;13.70;99.90
28530;DHT22;15737;49.760;6.632;2023-09-07T02:49:48;13.70;99.90
28530;DHT22;15737;49.760;6.632;2023-09-07T02:54:42;13.80;99.90
28530;DHT22;15737;49.760;6.632;2023-09-07T02:57:08;13.80;99.90
28530;DHT22;15737;49.760;6.632;2023-09-07T02:59:33;13.80;99.90
28530;DHT22;15737;49.760;6.632;2023-09-07T03:01:59;13.80;99.90
28530;DHT22;15737;49.760;6.632;2023-09-07T03:04:24;13.80;99.90
28530;DHT22;15737;49.760;6.632;2023-09-07T03:06:50;13.80;99.90
28530;DHT22;15737;49.760;6.632;2023-09-07T03:09:15;13.70;99.90
28530;DHT22;15737;49.760;6.632;2023-09-07T03:11:41;13.70;99.90
28530;DHT22;15737;49.760;6.632;2023-09-07T03:14:06;13.70;99.90
28530;DHT22;15737;49.760;6.632;2023-09-07T03:16:32;13.70;99.90
28530;DHT22;15737;49.760;6.632;2023-09-07T03:18:57;13.70;99.90
28530;DHT22;15737;49.760;6.632;2023-09-07T03:21:23;13.60;99.90
28530;DHT22;15737;49.760;6.632;2023-09-07T03:26:24;13.50;99.90
28530;DHT22;15737;49.760;6.632;2023-09-07T03:28:50;13.50;99.90
28530;DHT22;15737;49.760;6.632;2023-09-07T03:31:16;13.40;99.90
28530;DHT22;15737;49.760;6.632;2023-09-07T03:33:42;13.40;99.90
28530;DHT22;15737;49.760;6.632;2023-09-07T03:36:07;13.40;99.90
28530;DHT22;15737;49.760;6.632;2023-09-07T03:38:35;13.40;99.90
28530;DHT22;15737;49.760;6.632;2023-09-07T03:41:00;13.40;99.90
28530;DHT22;15737;49.760;6.632;2023-09-07T03:43:26;13.40;99.90
28530;DHT22;15737;49.760;6.632;2023-09-07T03:45:52;13.40;99.90
28530;DHT22;15737;49.760;6.632;2023-09-07T03:48:17;13.40;99.90
28530;DHT22;15737;49.760;6.632;2023-09-07T03:50:42;13.40;99.90
28530;DHT22;15737;49.760;6.632;2023-09-07T03:53:08;13.50;99.90
28530;DHT22;15737;49.760;6.632;2023-09-07T03:58:05;13.40;99.90
28530;DHT22;15737;49.760;6.632;2023-09-07T04:00:31;13.30;99.90
28530;DHT22;15737;49.760;6.632;2023-09-07T04:02:56;13.30;99.90
28530;DHT22;15737;49.760;6.632;2023-09-07T04:05:22;13.40;99.90
28530;DHT22;15737;49.760;6.632;2023-09-07T04:07:47;13.40;99.90
28530;DHT22;15737;49.760;6.632;2023-09-07T04:10:15;13.40;99.90
28530;DHT22;15737;49.760;6.632;2023-09-07T04:12:40;13.40;99.90
28530;DHT22;15737;49.760;6.632;2023-09-07T04:15:06;13.40;99.90
28530;DHT22;15737;49.760;6.632;2023-09-07T04:17:32;13.40;99.90
28530;DHT22;15737;49.760;6.632;2023-09-07T04:20:06;13.20;99.90
28530;DHT22;15737;49.760;6.632;2023-09-07T04:22:32;13.00;99.90
28530;DHT22;15737;49.760;6.632;2023-09-07T04:24:58;13.00;99.90
28530;DHT22;15737;49.760;6.632;2023-09-07T04:29:54;12.80;99.90
28530;DHT22;15737;49.760;6.632;2023-09-07T04:32:20;12.80;99.90
28530;DHT22;15737;49.760;6.632;2023-09-07T04:34:45;12.70;99.90
28530;DHT22;15737;49.760;6.632;2023-09-07T04:37:11;12.80;99.90
28530;DHT22;15737;49.760;6.632;2023-09-07T04:39:37;12.80;99.90
28530;DHT22;15737;49.760;6.632;2023-09-07T04:42:02;12.80;99.90
28530;DHT22;15737;49.760;6.632;2023-09-07T04:44:28;12.80;99.90
28530;DHT22;15737;49.760;6.632;2023-09-07T04:46:56;12.90;99.90
28530;DHT22;15737;49.760;6.632;2023-09-07T04:49:24;13.00;99.90
28530;DHT22;15737;49.760;6.632;2023-09-07T04:51:53;12.90;99.90
28530;DHT22;15737;49.760;6.632;2023-09-07T04:54:18;13.00;99.90
28530;DHT22;15737;49.760;6.632;2023-09-07T04:56:44;13.00;99.90
28530;DHT22;15737;49.760;6.632;2023-09-07T04:59:09;13.10;99.90
28530;DHT22;15737;49.760;6.632;2023-09-07T05:01:35;13.10;99.90
28530;DHT22;15737;49.760;6.632;2023-09-07T05:04:00;13.10;99.90
28530;DHT22;15737;49.760;6.632;2023-09-07T05:06:29;13.20;99.90
28530;DHT22;15737;49.760;6.632;2023-09-07T05:08:54;13.10;99.90
28530;DHT22;15737;49.760;6.632;2023-09-07T05:11:20;13.00;99.90
28530;DHT22;15737;49.760;6.632;2023-09-07T05:13:45;13.10;99.90
28530;DHT22;15737;49.760;6.632;2023-09-07T05:16:11;13.70;99.90
28530;DHT22;15737;49.760;6.632;2023-09-07T05:18:36;14.80;99.90
28530;DHT22;15737;49.760;6.632;2023-09-07T05:21:13;16.00;99.90
28530;DHT22;15737;49.760;6.632;2023-09-07T05:23:39;17.20;99.90
28530;DHT22;15737;49.760;6.632;2023-09-07T05:26:05;18.20;99.90
28530;DHT22;15737;49.760;6.632;2023-09-07T05:28:31;19.30;99.90
28530;DHT22;15737;49.760;6.632;2023-09-07T05:33:27;21.10;99.90
28530;DHT22;15737;49.760;6.632;2023-09-07T05:35:52;22.10;99.90
28530;DHT22;15737;49.760;6.632;2023-09-07T05:38:18;23.00;99.90
28530;DHT22;15737;49.760;6.632;2023-09-07T05:40:44;24.00;99.90
28530;DHT22;15737;49.760;6.632;2023-09-07T05:43:11;24.70;99.90
28530;DHT22;15737;49.760;6.632;2023-09-07T05:45:41;25.50;99.90
28530;DHT22;15737;49.760;6.632;2023-09-07T05:48:07;26.50;97.40
28530;DHT22;15737;49.760;6.632;2023-09-07T05:50:35;27.40;95.00
28530;DHT22;15737;49.760;6.632;2023-09-07T05:53:01;28.10;93.00
28530;DHT22;15737;49.760;6.632;2023-09-07T05:55:27;28.80;91.30
28530;DHT22;15737;49.760;6.632;2023-09-07T05:57:54;29.50;88.20
28530;DHT22;15737;49.760;6.632;2023-09-07T06:00:20;30.10;83.90
28530;DHT22;15737;49.760;6.632;2023-09-07T06:02:46;31.00;80.00
28530;DHT22;15737;49.760;6.632;2023-09-07T06:05:12;31.80;75.70
28530;DHT22;15737;49.760;6.632;2023-09-07T06:07:38;32.50;72.20
28530;DHT22;15737;49.760;6.632;2023-09-07T06:10:04;33.10;69.50
28530;DHT22;15737;49.760;6.632;2023-09-07T06:12:33;33.50;67.90
28530;DHT22;15737;49.760;6.632;2023-09-07T06:15:00;33.70;67.00
28530;DHT22;15737;49.760;6.632;2023-09-07T06:17:26;33.90;65.50
28530;DHT22;15737;49.760;6.632;2023-09-07T06:19:52;33.40;66.40
28530;DHT22;15737;49.760;6.632;2023-09-07T06:22:17;32.90;67.30
28530;DHT22;15737;49.760;6.632;2023-09-07T06:24:43;33.20;66.10
28530;DHT22;15737;49.760;6.632;2023-09-07T06:27:08;33.50;65.60
28530;DHT22;15737;49.760;6.632;2023-09-07T06:29:34;34.50;61.70
28530;DHT22;15737;49.760;6.632;2023-09-07T06:31:59;35.20;60.10
28530;DHT22;15737;49.760;6.632;2023-09-07T06:36:56;35.60;59.60
28530;DHT22;15737;49.760;6.632;2023-09-07T06:39:21;36.00;58.20
28530;DHT22;15737;49.760;6.632;2023-09-07T06:41:47;35.60;58.30
28530;DHT22;15737;49.760;6.632;2023-09-07T06:44:13;36.20;57.60
28530;DHT22;15737;49.760;6.632;2023-09-07T06:46:39;35.90;56.20
28530;DHT22;15737;49.760;6.632;2023-09-07T06:49:06;34.60;57.10
28530;DHT22;15737;49.760;6.632;2023-09-07T06:51:32;33.80;58.80
28530;DHT22;15737;49.760;6.632;2023-09-07T06:53:57;35.10;57.00
28530;DHT22;15737;49.760;6.632;2023-09-07T06:56:23;35.90;55.10
28530;DHT22;15737;49.760;6.632;2023-09-07T06:58:49;35.60;54.90
28530;DHT22;15737;49.760;6.632;2023-09-07T07:01:14;35.60;54.50
28530;DHT22;15737;49.760;6.632;2023-09-07T07:03:41;35.80;54.30
28530;DHT22;15737;49.760;6.632;2023-09-07T07:06:06;36.50;53.60
28530;DHT22;15737;49.760;6.632;2023-09-07T07:08:32;36.30;53.00
28530;DHT22;15737;49.760;6.632;2023-09-07T07:10:57;36.40;52.80
28530;DHT22;15737;49.760;6.632;2023-09-07T07:13:23;36.20;52.80
28530;DHT22;15737;49.760;6.632;2023-09-07T07:15:48;36.20;52.50
28530;DHT22;15737;49.760;6.632;2023-09-07T07:18:14;35.50;52.40
28530;DHT22;15737;49.760;6.632;2023-09-07T07:20:41;35.20;53.50
28530;DHT22;15737;49.760;6.632;2023-09-07T07:23:07;36.00;52.50
28530;DHT22;15737;49.760;6.632;2023-09-07T07:25:33;36.10;52.00
28530;DHT22;15737;49.760;6.632;2023-09-07T07:28:00;36.50;51.40
28530;DHT22;15737;49.760;6.632;2023-09-07T07:30:28;36.60;50.90
28530;DHT22;15737;49.760;6.632;2023-09-07T07:32:56;36.10;51.20
28530;DHT22;15737;49.760;6.632;2023-09-07T07:35:22;36.20;50.80
28530;DHT22;15737;49.760;6.632;2023-09-07T07:40:19;37.10;49.30
28530;DHT22;15737;49.760;6.632;2023-09-07T07:42:46;37.10;49.20
28530;DHT22;15737;49.760;6.632;2023-09-07T07:45:12;37.70;49.00
28530;DHT22;15737;49.760;6.632;2023-09-07T07:47:39;37.30;48.70
28530;DHT22;15737;49.760;6.632;2023-09-07T07:50:05;37.70;48.40
28530;DHT22;15737;49.760;6.632;2023-09-07T07:52:31;37.80;48.10
28530;DHT22;15737;49.760;6.632;2023-09-07T07:54:56;38.10;47.90
28530;DHT22;15737;49.760;6.632;2023-09-07T07:57:22;38.40;47.60
28530;DHT22;15737;49.760;6.632;2023-09-07T07:59:47;38.70;46.90
28530;DHT22;15737;49.760;6.632;2023-09-07T08:02:13;38.40;47.40
28530;DHT22;15737;49.760;6.632;2023-09-07T08:04:38;38.50;47.00
28530;DHT22;15737;49.760;6.632;2023-09-07T08:07:04;37.80;47.70
28530;DHT22;15737;49.760;6.632;2023-09-07T08:09:30;37.40;48.20
28530;DHT22;15737;49.760;6.632;2023-09-07T08:11:56;38.10;47.40
28530;DHT22;15737;49.760;6.632;2023-09-07T08:14:23;38.80;46.60
28530;DHT22;15737;49.760;6.632;2023-09-07T08:16:49;39.10;46.20
28530;DHT22;15737;49.760;6.632;2023-09-07T08:19:15;39.50;45.30
28530;DHT22;15737;49.760;6.632;2023-09-07T08:21:40;38.60;46.30
28530;DHT22;15737;49.760;6.632;2023-09-07T08:24:08;38.50;46.40
28530;DHT22;15737;49.760;6.632;2023-09-07T08:26:35;38.30;46.40
28530;DHT22;15737;49.760;6.632;2023-09-07T08:29:00;37.70;46.70
28530;DHT22;15737;49.760;6.632;2023-09-07T08:31:31;37.30;47.30
28530;DHT22;15737;49.760;6.632;2023-09-07T08:33:56;38.00;46.60
28530;DHT22;15737;49.760;6.632;2023-09-07T08:36:22;39.40;45.10
28530;DHT22;15737;49.760;6.632;2023-09-07T08:38:50;40.10;44.50
28530;DHT22;15737;49.760;6.632;2023-09-07T08:41:20;40.80;44.10
28530;DHT22;15737;49.760;6.632;2023-09-07T08:43:46;40.70;43.60
28530;DHT22;15737;49.760;6.632;2023-09-07T08:46:18;40.10;43.90
28530;DHT22;15737;49.760;6.632;2023-09-07T08:48:43;39.50;44.70
28530;DHT22;15737;49.760;6.632;2023-09-07T08:51:12;39.30;44.80
28530;DHT22;15737;49.760;6.632;2023-09-07T08:53:39;39.00;45.10
28530;DHT22;15737;49.760;6.632;2023-09-07T08:56:06;39.10;45.30
28530;DHT22;15737;49.760;6.632;2023-09-07T08:58:32;39.10;44.90
28530;DHT22;15737;49.760;6.632;2023-09-07T09:00:58;39.20;45.00
28530;DHT22;15737;49.760;6.632;2023-09-07T09:03:23;39.50;44.30
28530;DHT22;15737;49.760;6.632;2023-09-07T09:05:50;39.20;45.00
28530;DHT22;15737;49.760;6.632;2023-09-07T09:08:16;39.50;44.50
28530;DHT22;15737;49.760;6.632;2023-09-07T09:10:45;38.70;45.20
28530;DHT22;15737;49.760;6.632;2023-09-07T09:13:11;38.30;45.90
28530;DHT22;15737;49.760;6.632;2023-09-07T09:15:37;38.60;45.60
28530;DHT22;15737;49.760;6.632;2023-09-07T09:18:10;39.10;45.40
28530;DHT22;15737;49.760;6.632;2023-09-07T09:20:37;39.40;45.10
28530;DHT22;15737;49.760;6.632;2023-09-07T09:23:03;39.60;44.80
28530;DHT22;15737;49.760;6.632;2023-09-07T09:25:31;39.20;45.00
28530;DHT22;15737;49.760;6.632;2023-09-07T09:27:57;38.40;45.80
28530;DHT22;15737;49.760;6.632;2023-09-07T09:30:22;38.00;45.80
28530;DHT22;15737;49.760;6.632;2023-09-07T09:32:48;37.20;47.30
28530;DHT22;15737;49.760;6.632;2023-09-07T09:35:16;38.30;46.30
28530;DHT22;15737;49.760;6.632;2023-09-07T09:37:44;39.80;44.50
28530;DHT22;15737;49.760;6.632;2023-09-07T09:40:11;40.40;44.10
28530;DHT22;15737;49.760;6.632;2023-09-07T09:42:36;41.00;43.40
28530;DHT22;15737;49.760;6.632;2023-09-07T09:45:05;41.40;43.10
28530;DHT22;15737;49.760;6.632;2023-09-07T09:47:33;42.40;42.10
28530;DHT22;15737;49.760;6.632;2023-09-07T09:50:01;42.60;41.90
28530;DHT22;15737;49.760;6.632;2023-09-07T09:52:28;43.10;41.40
28530;DHT22;15737;49.760;6.632;2023-09-07T09:54:55;43.60;41.10
28530;DHT22;15737;49.760;6.632;2023-09-07T09:57:21;44.20;40.50
28530;DHT22;15737;49.760;6.632;2023-09-07T09:59:47;43.80;40.50
28530;DHT22;15737;49.760;6.632;2023-09-07T10:02:14;43.00;41.40
28530;DHT22;15737;49.760;6.632;2023-09-07T10:04:41;42.20;42.60
28530;DHT22;15737;49.760;6.632;2023-09-07T10:07:07;42.40;42.20
28530;DHT22;15737;49.760;6.632;2023-09-07T10:09:33;42.60;41.90
28530;DHT22;15737;49.760;6.632;2023-09-07T10:11:59;42.20;42.20
28530;DHT22;15737;49.760;6.632;2023-09-07T10:14:38;41.80;42.00
28530;DHT22;15737;49.760;6.632;2023-09-07T10:17:04;41.40;43.70
28530;DHT22;15737;49.760;6.632;2023-09-07T10:19:30;41.40;42.90
28530;DHT22;15737;49.760;6.632;2023-09-07T10:21:56;41.30;42.70
28530;DHT22;15737;49.760;6.632;2023-09-07T10:24:32;40.10;43.80
28530;DHT22;15737;49.760;6.632;2023-09-07T10:27:03;39.90;44.30
28530;DHT22;15737;49.760;6.632;2023-09-07T10:29:43;40.10;44.00
28530;DHT22;15737;49.760;6.632;2023-09-07T10:32:09;40.30;43.70
28530;DHT22;15737;49.760;6.632;2023-09-07T10:34:38;40.70;43.40
28530;DHT22;15737;49.760;6.632;2023-09-07T10:37:05;40.60;43.10
28530;DHT22;15737;49.760;6.632;2023-09-07T10:39:31;41.00;42.90
28530;DHT22;15737;49.760;6.632;2023-09-07T10:41:57;40.70;43.20
28530;DHT22;15737;49.760;6.632;2023-09-07T10:44:27;40.90;43.20
28530;DHT22;15737;49.760;6.632;2023-09-07T10:46:54;40.70;43.50
28530;DHT22;15737;49.760;6.632;2023-09-07T10:49:19;40.20;43.80
28530;DHT22;15737;49.760;6.632;2023-09-07T10:51:46;40.50;43.80
28530;DHT22;15737;49.760;6.632;2023-09-07T10:54:22;40.60;43.60
28530;DHT22;15737;49.760;6.632;2023-09-07T10:56:49;40.00;44.20
28530;DHT22;15737;49.760;6.632;2023-09-07T10:59:15;39.60;44.80
28530;DHT22;15737;49.760;6.632;2023-09-07T11:01:43;39.10;45.10
28530;DHT22;15737;49.760;6.632;2023-09-07T11:04:08;38.80;45.70
28530;DHT22;15737;49.760;6.632;2023-09-07T11:06:36;38.80;45.90
28530;DHT22;15737;49.760;6.632;2023-09-07T11:09:02;39.20;45.60
28530;DHT22;15737;49.760;6.632;2023-09-07T11:11:31;39.70;45.00
28530;DHT22;15737;49.760;6.632;2023-09-07T11:13:58;39.70;44.90
28530;DHT22;15737;49.760;6.632;2023-09-07T11:16:25;39.80;45.10
28530;DHT22;15737;49.760;6.632;2023-09-07T11:18:53;40.10;44.80
28530;DHT22;15737;49.760;6.632;2023-09-07T11:21:20;40.80;44.30
28530;DHT22;15737;49.760;6.632;2023-09-07T11:23:46;41.00;43.80
28530;DHT22;15737;49.760;6.632;2023-09-07T11:26:11;40.80;44.00
28530;DHT22;15737;49.760;6.632;2023-09-07T11:28:38;40.90;44.20
28530;DHT22;15737;49.760;6.632;2023-09-07T11:31:03;41.30;43.80
28530;DHT22;15737;49.760;6.632;2023-09-07T11:33:32;41.50;43.70
28530;DHT22;15737;49.760;6.632;2023-09-07T11:35:58;41.50;43.60
28530;DHT22;15737;49.760;6.632;2023-09-07T11:38:29;41.30;43.90
28530;DHT22;15737;49.760;6.632;2023-09-07T11:40:54;41.20;44.00
28530;DHT22;15737;49.760;6.632;2023-09-07T11:43:20;41.70;43.80
28530;DHT22;15737;49.760;6.632;2023-09-07T11:45:46;42.10;43.20
28530;DHT22;15737;49.760;6.632;2023-09-07T11:48:12;42.50;43.10
28530;DHT22;15737;49.760;6.632;2023-09-07T11:50:39;42.40;42.60
28530;DHT22;15737;49.760;6.632;2023-09-07T11:53:05;42.00;43.00
28530;DHT22;15737;49.760;6.632;2023-09-07T11:55:32;41.50;43.60
28530;DHT22;15737;49.760;6.632;2023-09-07T11:57:57;42.00;43.50
28530;DHT22;15737;49.760;6.632;2023-09-07T12:00:23;42.30;42.80
28530;DHT22;15737;49.760;6.632;2023-09-07T12:02:49;41.80;42.70
28530;DHT22;15737;49.760;6.632;2023-09-07T12:05:14;40.70;44.00
28530;DHT22;15737;49.760;6.632;2023-09-07T12:07:41;40.60;44.50
28530;DHT22;15737;49.760;6.632;2023-09-07T12:10:11;40.90;44.20
28530;DHT22;15737;49.760;6.632;2023-09-07T12:12:37;41.10;44.10
28530;DHT22;15737;49.760;6.632;2023-09-07T12:15:04;41.70;43.70
28530;DHT22;15737;49.760;6.632;2023-09-07T12:20:00;41.50;43.30
28530;DHT22;15737;49.760;6.632;2023-09-07T12:22:26;41.20;43.20
28530;DHT22;15737;49.760;6.632;2023-09-07T12:24:52;40.80;43.80
28530;DHT22;15737;49.760;6.632;2023-09-07T12:27:18;40.70;44.00
28530;DHT22;15737;49.760;6.632;2023-09-07T12:29:44;40.90;44.10
28530;DHT22;15737;49.760;6.632;2023-09-07T12:32:10;41.10;43.60
28530;DHT22;15737;49.760;6.632;2023-09-07T12:34:35;41.40;43.40
28530;DHT22;15737;49.760;6.632;2023-09-07T12:37:01;41.60;43.20
28530;DHT22;15737;49.760;6.632;2023-09-07T12:39:27;41.50;43.00
28530;DHT22;15737;49.760;6.632;2023-09-07T12:41:52;41.00;43.20
28530;DHT22;15737;49.760;6.632;2023-09-07T12:44:18;40.50;43.60
28530;DHT22;15737;49.760;6.632;2023-09-07T12:46:43;40.40;43.70
28530;DHT22;15737;49.760;6.632;2023-09-07T12:49:09;40.30;43.90
28530;DHT22;15737;49.760;6.632;2023-09-07T12:51:35;40.40;43.90
28530;DHT22;15737;49.760;6.632;2023-09-07T12:54:01;40.70;43.70
28530;DHT22;15737;49.760;6.632;2023-09-07T12:56:26;40.60;43.80
28530;DHT22;15737;49.760;6.632;2023-09-07T12:58:52;40.10;43.90
28530;DHT22;15737;49.760;6.632;2023-09-07T13:01:19;39.40;44.00
28530;DHT22;15737;49.760;6.632;2023-09-07T13:03:44;38.40;45.00
28530;DHT22;15737;49.760;6.632;2023-09-07T13:06:10;38.10;45.80
28530;DHT22;15737;49.760;6.632;2023-09-07T13:08:36;38.20;45.60
28530;DHT22;15737;49.760;6.632;2023-09-07T13:11:01;39.00;44.10
28530;DHT22;15737;49.760;6.632;2023-09-07T13:13:27;38.50;44.90
28530;DHT22;15737;49.760;6.632;2023-09-07T13:15:57;38.30;45.20
28530;DHT22;15737;49.760;6.632;2023-09-07T13:18:23;39.00;44.40
28530;DHT22;15737;49.760;6.632;2023-09-07T13:20:50;39.70;43.60
28530;DHT22;15737;49.760;6.632;2023-09-07T13:23:17;40.20;42.90
28530;DHT22;15737;49.760;6.632;2023-09-07T13:25:43;40.20;42.70
28530;DHT22;15737;49.760;6.632;2023-09-07T13:28:09;40.40;42.80
28530;DHT22;15737;49.760;6.632;2023-09-07T13:30:34;40.80;42.40
28530;DHT22;15737;49.760;6.632;2023-09-07T13:33:00;40.60;42.10
28530;DHT22;15737;49.760;6.632;2023-09-07T13:35:25;40.10;42.90
28530;DHT22;15737;49.760;6.632;2023-09-07T13:37:51;40.10;43.60
28530;DHT22;15737;49.760;6.632;2023-09-07T13:40:17;40.40;42.70
28530;DHT22;15737;49.760;6.632;2023-09-07T13:42:45;40.20;42.80
28530;DHT22;15737;49.760;6.632;2023-09-07T13:45:11;39.70;43.00
28530;DHT22;15737;49.760;6.632;2023-09-07T13:47:36;38.60;43.80
28530;DHT22;15737;49.760;6.632;2023-09-07T13:50:02;38.10;44.60
28530;DHT22;15737;49.760;6.632;2023-09-07T13:52:28;38.60;44.20
28530;DHT22;15737;49.760;6.632;2023-09-07T13:54:53;38.60;43.80
28530;DHT22;15737;49.760;6.632;2023-09-07T13:57:19;38.50;44.10
28530;DHT22;15737;49.760;6.632;2023-09-07T13:59:44;38.20;44.30
28530;DHT22;15737;49.760;6.632;2023-09-07T14:02:10;38.70;44.10
28530;DHT22;15737;49.760;6.632;2023-09-07T14:04:35;39.10;43.50
28530;DHT22;15737;49.760;6.632;2023-09-07T14:07:01;38.90;44.00
28530;DHT22;15737;49.760;6.632;2023-09-07T14:09:26;38.80;43.90
28530;DHT22;15737;49.760;6.632;2023-09-07T14:11:52;38.00;45.00
28530;DHT22;15737;49.760;6.632;2023-09-07T14:14:17;37.80;45.10
28530;DHT22;15737;49.760;6.632;2023-09-07T14:16:43;37.10;45.30
28530;DHT22;15737;49.760;6.632;2023-09-07T14:19:09;36.30;46.30
28530;DHT22;15737;49.760;6.632;2023-09-07T14:21:34;36.20;46.80
28530;DHT22;15737;49.760;6.632;2023-09-07T14:24:00;36.60;46.50
28530;DHT22;15737;49.760;6.632;2023-09-07T14:26:27;37.40;45.70
28530;DHT22;15737;49.760;6.632;2023-09-07T14:28:52;37.50;45.70
28530;DHT22;15737;49.760;6.632;2023-09-07T14:31:19;37.30;45.10
28530;DHT22;15737;49.760;6.632;2023-09-07T14:33:44;36.00;46.00
28530;DHT22;15737;49.760;6.632;2023-09-07T14:36:10;35.10;47.10
28530;DHT22;15737;49.760;6.632;2023-09-07T14:38:35;34.90;47.30
28530;DHT22;15737;49.760;6.632;2023-09-07T14:41:07;34.30;47.80
28530;DHT22;15737;49.760;6.632;2023-09-07T14:43:33;33.80;48.30
28530;DHT22;15737;49.760;6.632;2023-09-07T14:45:59;33.50;48.80
28530;DHT22;15737;49.760;6.632;2023-09-07T14:48:24;33.20;49.60
28530;DHT22;15737;49.760;6.632;2023-09-07T14:50:50;33.30;49.50
28530;DHT22;15737;49.760;6.632;2023-09-07T14:55:45;32.60;50.70
28530;DHT22;15737;49.760;6.632;2023-09-07T14:58:14;32.80;50.30
28530;DHT22;15737;49.760;6.632;2023-09-07T15:00:39;32.90;50.10
28530;DHT22;15737;49.760;6.632;2023-09-07T15:03:05;33.10;50.00
28530;DHT22;15737;49.760;6.632;2023-09-07T15:05:30;32.90;50.30
28530;DHT22;15737;49.760;6.632;2023-09-07T15:07:56;32.70;50.90
28530;DHT22;15737;49.760;6.632;2023-09-07T15:10:21;32.60;51.00
28530;DHT22;15737;49.760;6.632;2023-09-07T15:12:47;32.50;51.10
28530;DHT22;15737;49.760;6.632;2023-09-07T15:15:12;32.60;51.00
28530;DHT22;15737;49.760;6.632;2023-09-07T15:17:38;32.50;50.80
28530;DHT22;15737;49.760;6.632;2023-09-07T15:20:07;32.30;50.90
28530;DHT22;15737;49.760;6.632;2023-09-07T15:22:33;32.30;51.80
28530;DHT22;15737;49.760;6.632;2023-09-07T15:24:59;33.00;51.60
28530;DHT22;15737;49.760;6.632;2023-09-07T15:27:26;33.50;51.50
28530;DHT22;15737;49.760;6.632;2023-09-07T15:29:51;33.60;51.70
28530;DHT22;15737;49.760;6.632;2023-09-07T15:32:18;33.80;51.40
28530;DHT22;15737;49.760;6.632;2023-09-07T15:34:44;34.00;51.40
28530;DHT22;15737;49.760;6.632;2023-09-07T15:37:09;34.00;51.40
28530;DHT22;15737;49.760;6.632;2023-09-07T15:39:35;34.20;51.60
28530;DHT22;15737;49.760;6.632;2023-09-07T15:42:01;33.90;51.50
28530;DHT22;15737;49.760;6.632;2023-09-07T15:44:26;33.10;52.50
28530;DHT22;15737;49.760;6.632;2023-09-07T15:46:55;32.70;53.50